KLCI/LCI METAR and TAF weather

Enter ICAO airport designator
Station Type Date Time Source
KLCI METAR 2019/10/22 16:56 UTC NOAA

KLCI 221656Z AUTO 08009G16KT 10SM CLR 15/06 A3012 RMK AO2 SLP203 T01500056


Station Type Date Time Source
KLCI Decoded METAR 2019/10/22 16:56 UTC NOAA

Laconia, Laconia Municipal Airport, NH, United States (KLCI) 43-34N 071-25W
Oct 22, 2019 - 12:56 PM EDT / 2019.10.22 1656 UTC
Wind: from the E (080 degrees) at 10 MPH (9 KT) gusting to 18 MPH (16 KT):0
Visibility: 10 mile(s):0
Sky conditions: clear
Temperature: 59.0 F (15.0 C)
Dew Point: 42.1 F (5.6 C)
Relative Humidity: 53%
Pressure (altimeter): 30.12 in. Hg (1019 hPa)
ob: KLCI 221656Z AUTO 08009G16KT 10SM CLR 15/06 A3012 RMK AO2 SLP203 T01500056
cycle: 17

Station Type Date Time Source
KLCI TAF UTC NOAA

Error!

Example: see airport list